createdAt,value
2023-02-19T00:01:52.262Z,11.58
2023-02-19T00:04:24.533Z,11.55
2023-02-19T00:06:52.630Z,11.55
2023-02-19T00:09:20.703Z,11.47
2023-02-19T00:11:49.010Z,11.59
2023-02-19T00:14:20.020Z,11.35
2023-02-19T00:16:49.790Z,11.32
2023-02-19T00:19:20.148Z,11.49
2023-02-19T00:21:50.745Z,11.30
2023-02-19T00:24:19.668Z,11.45
2023-02-19T00:26:47.810Z,11.30
2023-02-19T00:29:20.373Z,11.18
2023-02-19T00:31:49.232Z,11.34
2023-02-19T00:34:17.867Z,11.36
2023-02-19T00:36:46.192Z,11.23
2023-02-19T00:39:18.266Z,11.25
2023-02-19T00:41:46.620Z,11.36
2023-02-19T00:44:15.823Z,11.27
2023-02-19T00:46:46.282Z,11.18
2023-02-19T00:49:23.196Z,11.15
2023-02-19T00:51:53.051Z,11.25
2023-02-19T00:54:22.822Z,11.24
2023-02-19T00:56:51.761Z,11.14
2023-02-19T00:59:19.674Z,11.07
2023-02-19T01:01:49.750Z,11.07
2023-02-19T01:04:18.876Z,10.84
2023-02-19T01:06:49.066Z,10.92
2023-02-19T01:09:17.205Z,11.05
2023-02-19T01:11:45.193Z,10.99
2023-02-19T01:14:13.363Z,10.88
2023-02-19T01:16:42.073Z,10.94
2023-02-19T01:19:10.444Z,10.67
2023-02-19T01:21:39.993Z,10.65
2023-02-19T01:24:08.307Z,10.68
2023-02-19T01:26:36.429Z,10.67
2023-02-19T01:29:05.144Z,10.57
2023-02-19T01:31:33.959Z,10.44
2023-02-19T01:34:04.553Z,10.62
2023-02-19T01:36:34.347Z,10.41
2023-02-19T01:39:05.228Z,10.62
2023-02-19T01:41:39.682Z,10.50
2023-02-19T01:44:11.485Z,10.40
2023-02-19T01:46:42.249Z,10.55
2023-02-19T01:49:23.021Z,10.46
2023-02-19T01:51:57.084Z,10.31
2023-02-19T01:54:29.640Z,10.50
2023-02-19T01:56:59.913Z,10.53
2023-02-19T01:59:27.901Z,10.36
2023-02-19T02:01:56.329Z,10.64
2023-02-19T02:04:24.713Z,10.58
2023-02-19T02:06:56.115Z,10.45
2023-02-19T02:09:46.721Z,10.63
2023-02-19T02:12:15.339Z,10.45
2023-02-19T02:14:46.429Z,10.46
2023-02-19T02:17:31.611Z,10.64
2023-02-19T02:20:25.146Z,10.51
2023-02-19T02:23:16.946Z,10.44
2023-02-19T02:25:47.837Z,10.59
2023-02-19T02:28:52.882Z,10.49
2023-02-19T02:31:30.859Z,10.45
2023-02-19T02:34:07.976Z,10.44
2023-02-19T02:36:44.278Z,10.63
2023-02-19T02:39:19.153Z,10.45
2023-02-19T02:42:15.199Z,10.52
2023-02-19T02:45:07.686Z,10.63
2023-02-19T02:47:45.044Z,10.45
2023-02-19T02:50:44.530Z,10.54
2023-02-19T02:53:38.639Z,10.64
2023-02-19T02:56:07.070Z,10.54
2023-02-19T02:58:38.251Z,10.46
2023-02-19T03:01:30.764Z,10.46
2023-02-19T03:04:04.564Z,10.26
2023-02-19T03:06:36.002Z,10.32
2023-02-19T03:09:40.547Z,10.39
2023-02-19T03:12:34.084Z,10.34
2023-02-19T03:15:27.385Z,10.30
2023-02-19T03:18:20.026Z,10.33
2023-02-19T03:20:52.302Z,10.29
2023-02-19T03:23:46.823Z,10.37
2023-02-19T03:26:18.281Z,10.23
2023-02-19T03:29:12.430Z,10.25
2023-02-19T03:31:45.487Z,10.19
2023-02-19T03:34:26.296Z,10.18
2023-02-19T03:37:02.667Z,10.24
2023-02-19T03:39:31.991Z,10.25
2023-02-19T03:42:32.106Z,10.00
2023-02-19T03:45:18.254Z,10.02
2023-02-19T03:47:59.400Z,10.08
2023-02-19T03:50:50.657Z,9.96
2023-02-19T03:53:24.019Z,9.97
2023-02-19T03:56:16.232Z,9.93
2023-02-19T03:59:09.686Z,9.89
2023-02-19T04:02:02.292Z,9.97
2023-02-19T04:04:44.647Z,10.09
2023-02-19T04:07:13.330Z,10.01
2023-02-19T04:09:47.265Z,9.99
2023-02-19T04:12:19.408Z,9.96
2023-02-19T04:14:51.031Z,10.05
2023-02-19T04:17:32.588Z,10.08
2023-02-19T04:20:05.759Z,10.00
2023-02-19T04:22:36.466Z,10.12
2023-02-19T04:25:04.723Z,10.11
2023-02-19T04:27:34.893Z,10.09
2023-02-19T04:30:03.018Z,10.13
2023-02-19T04:32:30.967Z,10.18
2023-02-19T04:34:58.785Z,10.25
2023-02-19T04:37:26.678Z,10.15
2023-02-19T04:39:54.461Z,10.16
2023-02-19T04:42:22.274Z,10.31
2023-02-19T04:44:50.136Z,10.20
2023-02-19T04:47:17.957Z,10.13
2023-02-19T04:49:45.785Z,10.23
2023-02-19T04:52:13.639Z,10.24
2023-02-19T04:54:41.454Z,10.23
2023-02-19T04:57:09.304Z,10.23
2023-02-19T04:59:37.489Z,10.24
2023-02-19T05:02:05.855Z,10.27
2023-02-19T05:04:33.771Z,10.06
2023-02-19T05:07:01.672Z,10.16
2023-02-19T05:09:29.472Z,10.24
2023-02-19T05:11:57.283Z,10.18
2023-02-19T05:14:25.197Z,10.08
2023-02-19T05:16:53.042Z,10.38
2023-02-19T05:19:20.937Z,10.33
2023-02-19T05:21:48.914Z,10.32
2023-02-19T05:24:16.923Z,10.39
2023-02-19T05:26:45.559Z,10.39
2023-02-19T05:29:13.467Z,10.41
2023-02-19T05:31:41.504Z,10.46
2023-02-19T05:34:09.454Z,10.46
2023-02-19T05:36:37.653Z,10.41
2023-02-19T05:39:07.434Z,10.41
2023-02-19T05:41:35.336Z,10.33
2023-02-19T05:44:03.150Z,10.35
2023-02-19T05:46:31.923Z,10.41
2023-02-19T05:48:59.952Z,10.30
2023-02-19T05:51:27.909Z,10.34
2023-02-19T05:53:57.132Z,10.27
2023-02-19T05:56:24.982Z,10.34
2023-02-19T05:58:54.176Z,10.27
2023-02-19T06:01:24.476Z,10.20
2023-02-19T06:03:54.089Z,10.29
2023-02-19T06:06:23.946Z,10.36
2023-02-19T06:08:52.053Z,10.38
2023-02-19T06:11:20.282Z,10.32
2023-02-19T06:13:50.241Z,10.36
2023-02-19T06:16:18.960Z,10.37
2023-02-19T06:18:46.906Z,10.31
2023-02-19T06:21:16.473Z,10.36
2023-02-19T06:23:45.004Z,10.38
2023-02-19T06:26:16.030Z,10.32
2023-02-19T06:28:45.418Z,10.37
2023-02-19T06:31:14.215Z,10.39
2023-02-19T06:33:42.347Z,10.45
2023-02-19T06:36:16.463Z,10.44
2023-02-19T06:38:44.824Z,10.46
2023-02-19T06:41:13.758Z,10.48
2023-02-19T06:43:42.280Z,10.48
2023-02-19T06:46:11.870Z,10.55
2023-02-19T06:48:41.966Z,10.36
2023-02-19T06:51:15.644Z,10.38
2023-02-19T06:53:43.521Z,10.41
2023-02-19T06:56:30.019Z,10.60
2023-02-19T06:59:00.787Z,10.52
2023-02-19T07:01:33.362Z,10.56
2023-02-19T07:04:01.856Z,10.49
2023-02-19T07:06:30.542Z,10.50
2023-02-19T07:08:59.659Z,10.54
2023-02-19T07:11:31.013Z,10.67
2023-02-19T07:14:01.108Z,10.64
2023-02-19T07:16:30.818Z,10.59
2023-02-19T07:19:00.296Z,10.49
2023-02-19T07:21:29.181Z,10.50
2023-02-19T07:23:57.839Z,10.58
2023-02-19T07:26:25.789Z,10.52
2023-02-19T07:28:53.765Z,10.67
2023-02-19T07:31:23.980Z,10.53
2023-02-19T07:33:52.026Z,10.74
2023-02-19T07:36:21.133Z,10.80
2023-02-19T07:38:59.386Z,10.79
2023-02-19T07:41:28.162Z,10.87
2023-02-19T07:43:58.682Z,10.91
2023-02-19T07:46:27.254Z,11.00
2023-02-19T07:48:55.098Z,10.98
2023-02-19T07:51:23.122Z,10.79
2023-02-19T07:53:51.747Z,10.98
2023-02-19T07:56:20.149Z,10.85
2023-02-19T07:58:48.215Z,10.93
2023-02-19T08:01:19.300Z,11.01
2023-02-19T08:03:50.121Z,10.79
2023-02-19T08:06:18.248Z,10.73
2023-02-19T08:08:46.120Z,10.70
2023-02-19T08:11:32.573Z,10.73
2023-02-19T08:14:00.410Z,10.64
2023-02-19T08:16:42.014Z,10.60
2023-02-19T08:19:11.277Z,10.71
2023-02-19T08:21:40.087Z,10.45
2023-02-19T08:24:07.973Z,10.19
2023-02-19T08:26:36.140Z,10.27
2023-02-19T08:29:05.272Z,10.07
2023-02-19T08:31:35.005Z,9.98
2023-02-19T08:34:02.920Z,10.02
2023-02-19T08:36:30.961Z,10.07
2023-02-19T08:38:58.755Z,10.02
2023-02-19T08:41:27.039Z,9.91
2023-02-19T08:43:54.888Z,9.93
2023-02-19T08:46:22.939Z,9.86
2023-02-19T08:48:51.101Z,9.94
2023-02-19T08:51:19.018Z,10.01
2023-02-19T08:53:46.937Z,9.99
2023-02-19T08:56:16.474Z,9.97
2023-02-19T08:58:44.823Z,9.86
2023-02-19T09:01:15.825Z,10.02
2023-02-19T09:03:44.417Z,9.93
2023-02-19T09:06:18.152Z,9.78
2023-02-19T09:08:46.244Z,9.77
2023-02-19T09:11:14.737Z,10.03
2023-02-19T09:13:43.855Z,9.90
2023-02-19T09:16:11.840Z,9.88
2023-02-19T09:18:39.807Z,9.97
2023-02-19T09:21:07.867Z,10.07
2023-02-19T09:23:36.901Z,10.12
2023-02-19T09:26:10.083Z,10.30
2023-02-19T09:28:41.732Z,10.47
2023-02-19T09:31:13.168Z,10.42
2023-02-19T09:33:46.338Z,10.58
2023-02-19T09:36:16.222Z,10.58
2023-02-19T09:38:44.514Z,10.71
2023-02-19T09:41:31.110Z,10.74
2023-02-19T09:44:01.702Z,10.88
2023-02-19T09:46:42.812Z,10.86
2023-02-19T09:49:19.836Z,10.96
2023-02-19T09:51:52.987Z,10.85
2023-02-19T09:54:24.527Z,11.13
2023-02-19T09:56:55.691Z,11.13
2023-02-19T09:59:27.485Z,11.33
2023-02-19T10:02:10.654Z,11.26
2023-02-19T10:04:44.019Z,11.37
2023-02-19T10:07:20.742Z,11.44
2023-02-19T10:10:01.347Z,11.65
2023-02-19T10:12:31.909Z,11.51
2023-02-19T10:15:09.423Z,11.53
2023-02-19T10:17:37.859Z,11.63
2023-02-19T10:20:06.183Z,11.57
2023-02-19T10:22:37.929Z,11.63
2023-02-19T10:25:06.156Z,11.77
2023-02-19T10:27:34.110Z,11.86
2023-02-19T10:30:02.239Z,11.86
2023-02-19T10:32:31.025Z,11.91
2023-02-19T10:35:14.647Z,11.87
2023-02-19T10:37:49.400Z,11.83
2023-02-19T10:40:20.388Z,11.83
2023-02-19T10:42:51.075Z,11.66
2023-02-19T10:45:23.945Z,11.84
2023-02-19T10:47:53.082Z,12.04
2023-02-19T10:50:31.171Z,12.29
2023-02-19T10:53:00.883Z,12.46
2023-02-19T10:55:37.465Z,12.17
2023-02-19T10:58:27.348Z,12.08
2023-02-19T11:01:14.062Z,12.22
2023-02-19T11:03:43.119Z,11.98
2023-02-19T11:06:13.620Z,11.93
2023-02-19T11:08:49.973Z,11.84
2023-02-19T11:11:32.741Z,11.94
2023-02-19T11:14:24.918Z,11.86
2023-02-19T11:16:58.929Z,11.95
2023-02-19T11:19:44.087Z,11.66
2023-02-19T11:22:42.052Z,11.63
2023-02-19T11:25:09.852Z,11.63
2023-02-19T11:27:53.865Z,11.60
2023-02-19T11:30:42.119Z,11.55
2023-02-19T11:33:15.990Z,11.35
2023-02-19T11:35:44.596Z,11.49
2023-02-19T11:38:14.820Z,11.41
2023-02-19T11:41:14.067Z,11.25
2023-02-19T11:43:57.137Z,11.16
2023-02-19T11:46:46.739Z,11.31
2023-02-19T11:49:47.085Z,11.27
2023-02-19T11:52:42.390Z,10.98
2023-02-19T11:55:42.726Z,10.64
2023-02-19T11:58:36.998Z,10.72
2023-02-19T12:01:29.585Z,10.13
2023-02-19T12:04:12.460Z,10.17
2023-02-19T12:07:05.195Z,10.42
2023-02-19T12:09:51.288Z,10.71
2023-02-19T12:12:22.464Z,10.86
2023-02-19T12:15:13.949Z,10.77
2023-02-19T12:18:04.167Z,10.58
2023-02-19T12:20:37.079Z,10.86
2023-02-19T12:23:36.897Z,10.82
2023-02-19T12:26:28.974Z,10.99
2023-02-19T12:29:11.015Z,10.81
2023-02-19T12:31:44.973Z,11.04
2023-02-19T12:34:37.588Z,11.15
2023-02-19T12:37:08.006Z,11.44
2023-02-19T12:39:35.916Z,11.94
2023-02-19T12:42:04.000Z,12.28
2023-02-19T12:44:51.304Z,12.37
2023-02-19T12:47:28.906Z,12.25
2023-02-19T12:50:19.084Z,11.93
2023-02-19T12:52:52.691Z,12.02
2023-02-19T12:55:32.770Z,12.07
2023-02-19T12:58:04.520Z,11.99
2023-02-19T13:00:39.681Z,12.00
2023-02-19T13:03:20.913Z,11.81
2023-02-19T13:06:12.720Z,11.70
2023-02-19T13:09:06.434Z,11.63
2023-02-19T13:11:48.331Z,11.60
2023-02-19T13:14:24.415Z,11.57
2023-02-19T13:17:01.503Z,11.66
2023-02-19T13:19:31.110Z,11.69
2023-02-19T13:23:05.563Z,11.56
2023-02-19T13:25:49.357Z,11.64
2023-02-19T13:28:38.409Z,11.63
2023-02-19T13:31:24.946Z,11.57
2023-02-19T13:34:09.978Z,11.56
2023-02-19T13:36:37.943Z,11.62
2023-02-19T13:39:06.926Z,11.71
2023-02-19T13:41:50.035Z,11.92
2023-02-19T13:44:26.162Z,11.86
2023-02-19T13:46:54.511Z,11.79
2023-02-19T13:49:41.103Z,11.88
2023-02-19T13:52:33.308Z,12.03
2023-02-19T13:55:40.755Z,11.86
2023-02-19T13:58:34.065Z,11.79
2023-02-19T14:01:04.452Z,11.76
2023-02-19T14:03:46.919Z,11.73
2023-02-19T14:06:15.061Z,11.76
2023-02-19T14:08:56.282Z,11.73
2023-02-19T14:11:42.163Z,11.82
2023-02-19T14:14:35.261Z,11.73
2023-02-19T14:17:09.248Z,11.58
2023-02-19T14:19:42.888Z,11.61
2023-02-19T14:22:45.112Z,11.65
2023-02-19T14:25:31.205Z,11.85
2023-02-19T14:28:01.754Z,11.92
2023-02-19T14:30:32.987Z,11.75
2023-02-19T14:33:10.742Z,11.64
2023-02-19T14:35:46.489Z,11.60
2023-02-19T14:38:21.489Z,11.57
2023-02-19T14:40:50.885Z,11.55
2023-02-19T14:43:21.494Z,11.53
2023-02-19T14:46:21.300Z,11.72
2023-02-19T14:48:50.072Z,11.63
2023-02-19T14:51:25.540Z,11.58
2023-02-19T14:53:55.495Z,11.50
2023-02-19T14:56:26.929Z,11.52
2023-02-19T14:59:11.402Z,11.42
2023-02-19T15:01:39.973Z,11.45
2023-02-19T15:04:25.474Z,11.42
2023-02-19T15:06:57.080Z,11.38
2023-02-19T15:09:33.056Z,11.35
2023-02-19T15:12:02.808Z,11.45
2023-02-19T15:14:32.434Z,11.47
2023-02-19T15:17:04.205Z,11.33
2023-02-19T15:19:35.414Z,11.36
2023-02-19T15:22:03.598Z,11.35
2023-02-19T15:24:32.137Z,11.31
2023-02-19T15:27:00.094Z,11.29
2023-02-19T15:29:28.749Z,11.28
2023-02-19T15:31:59.135Z,11.26
2023-02-19T15:34:29.706Z,11.29
2023-02-19T15:37:01.309Z,11.26
2023-02-19T15:39:40.499Z,11.25
2023-02-19T15:42:17.383Z,11.21
2023-02-19T15:44:51.092Z,11.30
2023-02-19T15:47:35.689Z,10.63
2023-02-19T15:50:30.635Z,9.95
2023-02-19T15:53:09.850Z,9.72
2023-02-19T15:55:44.836Z,9.65
2023-02-19T15:58:37.448Z,9.63
2023-02-19T16:01:12.312Z,9.64
2023-02-19T16:03:41.218Z,9.54
2023-02-19T16:06:11.494Z,9.64
2023-02-19T16:08:40.196Z,9.59
2023-02-19T16:11:23.221Z,9.59
2023-02-19T16:13:52.042Z,9.93
2023-02-19T16:16:35.960Z,9.98
2023-02-19T16:19:03.953Z,9.86
2023-02-19T16:21:31.790Z,9.90
2023-02-19T16:24:25.727Z,9.75
2023-02-19T16:26:54.765Z,9.88
2023-02-19T16:29:32.657Z,9.90
2023-02-19T16:32:03.958Z,10.03
2023-02-19T16:34:42.138Z,10.04
2023-02-19T16:37:36.592Z,10.00
2023-02-19T16:40:07.280Z,9.99
2023-02-19T16:42:36.782Z,10.02
2023-02-19T16:45:08.446Z,10.10
2023-02-19T16:47:41.266Z,10.12
2023-02-19T16:50:16.754Z,10.09
2023-02-19T16:53:02.026Z,10.10
2023-02-19T16:55:32.667Z,10.13
2023-02-19T16:58:01.400Z,10.18
2023-02-19T17:00:31.782Z,10.17
2023-02-19T17:03:08.933Z,10.15
2023-02-19T17:05:38.436Z,10.14
2023-02-19T17:08:28.210Z,10.17
2023-02-19T17:10:56.792Z,10.31
2023-02-19T17:13:24.725Z,10.22
2023-02-19T17:15:52.701Z,10.23
2023-02-19T17:18:20.867Z,10.21
2023-02-19T17:20:54.575Z,10.37
2023-02-19T17:23:24.428Z,10.18
2023-02-19T17:25:52.485Z,10.14
2023-02-19T17:28:20.310Z,10.30
2023-02-19T17:30:48.127Z,10.32
2023-02-19T17:33:16.123Z,10.23
2023-02-19T17:35:44.884Z,10.32
2023-02-19T17:38:13.777Z,10.25
2023-02-19T17:40:41.743Z,10.17
2023-02-19T17:43:09.739Z,10.24
2023-02-19T17:45:37.835Z,10.28
2023-02-19T17:48:06.648Z,10.11
2023-02-19T17:50:34.509Z,10.02
2023-02-19T17:53:02.625Z,9.92
2023-02-19T17:55:30.505Z,9.95
2023-02-19T17:57:58.340Z,9.83
2023-02-19T18:00:29.011Z,9.67
2023-02-19T18:02:56.937Z,9.77
2023-02-19T18:05:24.843Z,9.80
2023-02-19T18:07:52.838Z,9.83
2023-02-19T18:10:23.461Z,9.67
2023-02-19T18:12:51.432Z,9.65
2023-02-19T18:15:22.709Z,9.70
2023-02-19T18:17:50.580Z,9.76
2023-02-19T18:20:25.261Z,9.88
2023-02-19T18:22:54.489Z,9.74
2023-02-19T18:25:23.204Z,9.78
2023-02-19T18:27:51.154Z,9.70
2023-02-19T18:30:22.605Z,9.89
2023-02-19T18:32:51.034Z,9.79
2023-02-19T18:35:20.608Z,9.81
2023-02-19T18:37:52.720Z,9.83
2023-02-19T18:40:22.940Z,9.80
2023-02-19T18:42:50.825Z,9.82
2023-02-19T18:45:18.826Z,9.78
2023-02-19T18:47:48.427Z,9.90
2023-02-19T18:51:32.445Z,9.87
2023-02-19T18:54:01.799Z,9.84
2023-02-19T19:24:06.523Z,9.93
2023-02-19T19:26:35.800Z,9.84
2023-02-19T19:29:04.402Z,9.95
2023-02-19T19:31:36.692Z,9.94
2023-02-19T19:34:04.615Z,10.03
2023-02-19T19:36:32.605Z,9.82
2023-02-19T19:39:00.482Z,9.84
2023-02-19T19:41:28.712Z,9.82
2023-02-19T19:43:56.628Z,9.79
2023-02-19T19:46:24.441Z,9.68
2023-02-19T19:48:53.093Z,9.78
2023-02-19T19:51:20.966Z,9.66
2023-02-19T19:53:49.628Z,9.64
2023-02-19T19:56:17.686Z,9.64
2023-02-19T19:58:45.599Z,9.69
2023-02-19T20:01:15.146Z,9.59
2023-02-19T20:03:43.085Z,9.52
2023-02-19T20:06:10.911Z,9.48
2023-02-19T20:08:38.766Z,9.48
2023-02-19T20:11:06.582Z,9.44
2023-02-19T20:13:34.573Z,9.32
2023-02-19T20:16:02.524Z,9.02
2023-02-19T20:18:30.567Z,9.07
2023-02-19T20:20:59.721Z,9.15
2023-02-19T20:23:28.633Z,9.04
2023-02-19T20:25:57.687Z,9.05
2023-02-19T20:28:25.560Z,9.04
2023-02-19T20:30:53.488Z,8.97
2023-02-19T20:33:21.395Z,8.98
2023-02-19T20:35:49.358Z,8.88
2023-02-19T20:38:17.237Z,8.84
2023-02-19T20:40:45.136Z,8.93
2023-02-19T20:43:12.980Z,8.88
2023-02-19T20:45:43.114Z,8.85
2023-02-19T20:48:11.030Z,8.95
2023-02-19T20:50:38.841Z,8.93
2023-02-19T20:53:06.676Z,8.86
2023-02-19T20:55:35.124Z,8.95
2023-02-19T20:58:02.958Z,8.89
2023-02-19T21:00:30.843Z,9.04
2023-02-19T21:02:58.804Z,8.95
2023-02-19T21:05:27.040Z,8.96
2023-02-19T21:07:55.283Z,9.10
2023-02-19T21:10:23.285Z,9.04
2023-02-19T21:12:52.369Z,8.97
2023-02-19T21:15:20.516Z,8.98
2023-02-19T21:17:48.659Z,9.01
2023-02-19T21:20:20.107Z,8.94
2023-02-19T21:22:47.930Z,9.09
2023-02-19T21:25:15.869Z,9.04
2023-02-19T21:27:43.793Z,9.09
2023-02-19T21:30:12.220Z,9.10
2023-02-19T21:32:40.098Z,9.03
2023-02-19T21:35:08.208Z,8.99
2023-02-19T21:37:36.106Z,8.97
2023-02-19T21:40:04.166Z,8.98
2023-02-19T21:42:31.982Z,8.94
2023-02-19T21:44:59.840Z,9.08
2023-02-19T21:47:28.966Z,9.07
2023-02-19T21:49:56.759Z,9.09
2023-02-19T21:52:24.617Z,9.01
2023-02-19T21:54:53.100Z,9.09
2023-02-19T21:57:21.416Z,9.07
2023-02-19T21:59:49.253Z,8.88
2023-02-19T22:02:20.584Z,8.99
2023-02-19T22:04:55.512Z,8.99
2023-02-19T22:07:24.315Z,9.13
2023-02-19T22:09:52.535Z,9.12
2023-02-19T22:12:20.686Z,8.99
2023-02-19T22:14:48.541Z,9.11
2023-02-19T22:17:16.402Z,9.03
2023-02-19T22:19:44.252Z,9.08
2023-02-19T22:22:12.227Z,9.10
2023-02-19T22:24:40.076Z,9.14
2023-02-19T22:27:08.173Z,8.98
2023-02-19T22:29:36.136Z,9.14
2023-02-19T22:32:04.123Z,9.09
2023-02-19T22:34:32.066Z,9.12
2023-02-19T22:36:59.896Z,9.23
2023-02-19T22:39:27.761Z,9.12
2023-02-19T22:41:55.646Z,9.18
2023-02-19T22:44:23.717Z,9.19
2023-02-19T22:46:54.330Z,9.23
2023-02-19T22:49:23.896Z,9.20
2023-02-19T22:51:55.568Z,9.16
2023-02-19T22:54:26.865Z,9.13
2023-02-19T22:56:55.632Z,9.13
2023-02-19T22:59:23.482Z,9.19
2023-02-19T23:01:52.387Z,9.15
2023-02-19T23:04:24.036Z,9.24
2023-02-19T23:06:52.411Z,9.33
2023-02-19T23:09:28.763Z,9.22
2023-02-19T23:12:08.088Z,9.14
2023-02-19T23:14:36.133Z,9.17
2023-02-19T23:17:04.347Z,9.13
2023-02-19T23:19:32.817Z,9.18
2023-02-19T23:22:00.769Z,9.15
2023-02-19T23:24:28.625Z,9.20
2023-02-19T23:26:56.455Z,9.17
2023-02-19T23:29:26.911Z,9.18
2023-02-19T23:31:55.083Z,9.05
2023-02-19T23:34:24.286Z,9.05
2023-02-19T23:36:52.412Z,9.09
2023-02-19T23:39:22.088Z,9.11
2023-02-19T23:41:52.534Z,9.07
2023-02-19T23:44:21.713Z,9.19
2023-02-19T23:46:50.628Z,9.07
2023-02-19T23:49:19.055Z,9.07
2023-02-19T23:51:47.004Z,9.14
2023-02-19T23:54:15.036Z,9.08
2023-02-19T23:56:42.935Z,9.07
2023-02-19T23:59:10.890Z,9.12
